ADDS METAR Data INFO
IDs: Format: Raw Decoded Include TAF

Data at: 0838 UTC 21 Oct 2017

KRZT 210834Z AUTO 00000KT 10SM CLR 06/06 A3021 RMK AO2
KRZT 210815Z AUTO 00000KT 10SM CLR 06/06 A3021 RMK AO2
KRZT 210754Z AUTO 00000KT 10SM CLR 07/07 A3021 RMK AO2
KRZT 210735Z AUTO 00000KT 10SM CLR 07/07 A3021 RMK AO2
KRZT 210714Z AUTO 00000KT 10SM CLR 07/07 A3022 RMK AO2
KRZT 210654Z AUTO 00000KT 10SM CLR 07/07 A3021 RMK AO2
KRZT 210635Z AUTO 26003KT 10SM CLR 07/07 A3022 RMK AO2
KRZT 210614Z AUTO 00000KT 10SM CLR 10/08 A3022 RMK AO2
KRZT 210555Z AUTO 21003KT 10SM CLR 11/10 A3021 RMK AO2
KRZT 210534Z AUTO 00000KT 10SM CLR 08/08 A3021 RMK AO2
KRZT 210514Z AUTO 00000KT 10SM CLR 07/07 A3021 RMK AO2
KRZT 210455Z AUTO 00000KT 10SM CLR 07/07 A3022 RMK AO2
KRZT 210434Z AUTO 00000KT 10SM CLR 07/07 A3022 RMK AO2
KRZT 210414Z AUTO 00000KT 10SM CLR 08/08 A3022 RMK AO2
KRZT 210355Z AUTO 00000KT 10SM CLR 08/07 A3022 RMK AO2
KRZT 210334Z AUTO 21003KT 10SM CLR 09/08 A3023 RMK AO2
KRZT 210315Z AUTO 21003KT 10SM CLR 08/08 A3022 RMK AO2
KRZT 210255Z AUTO 20003KT 10SM CLR 09/08 A3022 RMK AO2
KRZT 210234Z AUTO 21003KT 10SM CLR 09/08 A3021 RMK AO2
KRZT 210215Z AUTO 00000KT 10SM CLR 09/08 A3021 RMK AO2
KRZT 210154Z AUTO 00000KT 10SM CLR 10/08 A3021 RMK AO2
KRZT 210134Z AUTO 00000KT 10SM CLR 10/08 A3021 RMK AO2
KRZT 210115Z AUTO 00000KT 10SM CLR 10/08 A3021 RMK AO2
KRZT 210054Z AUTO 25003KT 10SM CLR 11/09 A3022 RMK AO2
KRZT 210035Z AUTO 25003KT 10SM CLR 11/09 A3021 RMK AO2
KRZT 210014Z AUTO 26004KT 10SM CLR 11/09 A3022 RMK AO2
KRZT 202354Z AUTO 00000KT 10SM CLR 12/09 A3021 RMK AO2
KRZT 202335Z AUTO 26003KT 10SM CLR 13/09 A3021 RMK AO2
KRZT 202314Z AUTO 00000KT 10SM CLR 16/08 A3021 RMK AO2
KRZT 202254Z AUTO 00000KT 10SM CLR 18/08 A3021 RMK AO2
KRZT 202235Z AUTO 00000KT 10SM CLR 20/07 A3021 RMK AO2
KRZT 202214Z AUTO 00000KT 10SM CLR 22/06 A3020 RMK AO2
KRZT 202155Z AUTO 00000KT 10SM CLR 22/06 A3020 RMK AO2
KRZT 202134Z AUTO 20003KT 10SM CLR 23/06 A3020 RMK AO2
KRZT 202114Z AUTO 23003KT 10SM CLR 23/05 A3020 RMK AO2
KRZT 202055Z AUTO 00000KT 10SM CLR 23/06 A3021 RMK AO2
KRZT 202034Z AUTO 18003KT 10SM CLR 23/05 A3021 RMK AO2
KRZT 202014Z AUTO 00000KT 10SM CLR 23/05 A3022 RMK AO2
KRZT 201955Z AUTO 00000KT 10SM CLR 23/05 A3022 RMK AO2
KRZT 201934Z AUTO 00000KT 10SM CLR 23/06 A3023 RMK AO2
KRZT 201915Z AUTO 00000KT 10SM CLR 23/05 A3023 RMK AO2
KRZT 201854Z AUTO 00000KT 10SM CLR 23/06 A3024 RMK AO2
KRZT 201834Z AUTO 00000KT 10SM CLR 22/06 A3025 RMK AO2
KRZT 201815Z AUTO 00000KT 10SM CLR 22/06 A3025 RMK AO2
KRZT 201754Z AUTO 00000KT 10SM CLR 22/06 A3027 RMK AO2
KRZT 201734Z AUTO 00000KT 7SM CLR 21/07 A3028 RMK AO2
KRZT 201715Z AUTO 00000KT 10SM CLR 21/06 A3029 RMK AO2
KRZT 201654Z AUTO 00000KT 10SM CLR 21/07 A3030 RMK AO2
KRZT 201635Z AUTO 00000KT 10SM CLR 21/06 A3031 RMK AO2
KRZT 201614Z AUTO 00000KT 10SM CLR 20/06 A3032 RMK AO2
KRZT 201554Z AUTO 00000KT 10SM CLR 18/10 A3032 RMK AO2
KRZT 201535Z AUTO 00000KT 10SM CLR 18/10 A3032 RMK AO2
KRZT 201514Z AUTO 00000KT 10SM CLR 17/11 A3033 RMK AO2
KRZT 201454Z AUTO 00000KT 10SM CLR 16/11 A3033 RMK AO2
KRZT 201435Z AUTO 00000KT 10SM CLR 14/11 A3033 RMK AO2
KRZT 201414Z AUTO 00000KT 10SM CLR 13/11 A3033 RMK AO2
KRZT 201355Z AUTO 00000KT 10SM CLR 12/11 A3033 RMK AO2
KRZT 201334Z AUTO 00000KT 10SM CLR 11/10 A3033 RMK AO2
KRZT 201314Z AUTO 00000KT 7SM CLR 10/10 A3033 RMK AO2
KRZT 201254Z AUTO 00000KT 10SM CLR 08/08 A3032 RMK AO2
KRZT 201234Z AUTO 00000KT 10SM CLR 06/06 A3031 RMK AO2
KRZT 201215Z AUTO 00000KT 10SM CLR 05/05 A3030 RMK AO2
KRZT 201154Z AUTO 00000KT 10SM CLR 05/05 A3030 RMK AO2
KRZT 201134Z AUTO 00000KT 10SM CLR 05/05 A3029 RMK AO2
KRZT 201115Z AUTO 00000KT 7SM CLR 06/06 A3028 RMK AO2
KRZT 201054Z AUTO 00000KT 7SM CLR 06/06 A3028 RMK AO2
KRZT 201035Z AUTO 00000KT 10SM CLR 06/06 A3027 RMK AO2
KRZT 201014Z AUTO 00000KT 10SM CLR 06/06 A3026 RMK AO2
KRZT 200954Z AUTO 00000KT 10SM CLR 06/06 A3026 RMK AO2
KRZT 200935Z AUTO 00000KT 2SM BR CLR 06/06 A3025 RMK AO2 VIS 1/2V5
KRZT 200914Z AUTO 00000KT 7SM CLR 07/07 A3025 RMK AO2
KRZT 200854Z AUTO 00000KT 10SM CLR 07/07 A3025 RMK AO2
KRZT 200834Z AUTO 00000KT 7SM CLR 08/08 A3024 RMK AO2
KRZT 200814Z AUTO 00000KT 10SM CLR 08/08 A3024 RMK AO2
KRZT 200754Z AUTO 00000KT 10SM CLR 08/08 A3024 RMK AO2
KRZT 200734Z AUTO 00000KT 10SM CLR 09/08 A3024 RMK AO2
KRZT 200715Z AUTO 20003KT 10SM CLR 10/10 A3024 RMK AO2
KRZT 200654Z AUTO 00000KT 10SM CLR 09/09 A3024 RMK AO2
KRZT 200634Z AUTO 22003KT 10SM CLR 09/09 A3023 RMK AO2
KRZT 200615Z AUTO 00000KT 10SM CLR 09/08 A3023 RMK AO2
KRZT 200554Z AUTO 00000KT 10SM CLR 10/09 A3023 RMK AO2
KRZT 200534Z AUTO 00000KT 10SM CLR 09/08 A3023 RMK AO2
KRZT 200515Z AUTO 00000KT 10SM CLR 10/08 A3023 RMK AO2
KRZT 200454Z AUTO 00000KT 10SM CLR 11/09 A3023 RMK AO2
KRZT 200435Z AUTO 00000KT 10SM CLR 11/09 A3022 RMK AO2
KRZT 200414Z AUTO 18003KT 10SM CLR 12/10 A3022 RMK AO2
KRZT 200354Z AUTO 00000KT 10SM CLR 11/10 A3022 RMK AO2
KRZT 200335Z AUTO 00000KT 10SM CLR 11/10 A3022 RMK AO2
KRZT 200314Z AUTO 00000KT 10SM CLR 12/09 A3022 RMK AO2
KRZT 200254Z AUTO 00000KT 10SM CLR 11/08 A3021 RMK AO2
KRZT 200235Z AUTO 00000KT 10SM CLR 11/10 A3021 RMK AO2
KRZT 200214Z AUTO 00000KT 10SM CLR 11/10 A3022 RMK AO2
KRZT 200155Z AUTO 00000KT 10SM CLR 11/09 A3022 RMK AO2
KRZT 200134Z AUTO 00000KT 10SM CLR 11/09 A3021 RMK AO2
KRZT 200114Z AUTO 00000KT 10SM CLR 11/08 A3021 RMK AO2
KRZT 200055Z AUTO 00000KT 10SM CLR 11/09 A3021 RMK AO2
KRZT 200034Z AUTO 00000KT 10SM CLR 12/10 A3021 RMK AO2
KRZT 200014Z AUTO 00000KT 10SM CLR 13/09 A3021 RMK AO2
KRZT 192355Z AUTO 00000KT 10SM CLR 13/08 A3020 RMK AO2
KRZT 192334Z AUTO 00000KT 10SM CLR 14/09 A3020 RMK AO2
KRZT 192314Z AUTO 00000KT 10SM CLR 17/08 A3020 RMK AO2
KRZT 192255Z AUTO 23003KT 10SM CLR 18/08 A3019 RMK AO2
KRZT 192234Z AUTO 23003KT 10SM CLR 20/07 A3019 RMK AO2
KRZT 192215Z AUTO 24006KT 10SM CLR 21/07 A3019 RMK AO2
KRZT 192154Z AUTO 26008KT 10SM CLR 21/07 A3018 RMK AO2
KRZT 192134Z AUTO 25009KT 10SM CLR 22/07 A3018 RMK AO2
KRZT 192115Z AUTO 25009KT 10SM CLR 22/06 A3018 RMK AO2
KRZT 192054Z AUTO 27007G14KT 10SM CLR 22/06 A3019 RMK AO2